sensor_id;sensor_type;location;lat;lon;timestamp;temperature;humidity
80579;SHT31;69939;52.402;6.608;2023-06-14T00:01:06;17.59;55.63
80579;SHT31;69939;52.402;6.608;2023-06-14T00:03:34;17.60;55.69
80579;SHT31;69939;52.402;6.608;2023-06-14T00:06:00;17.49;55.95
80579;SHT31;69939;52.402;6.608;2023-06-14T00:08:27;17.50;55.74
80579;SHT31;69939;52.402;6.608;2023-06-14T00:10:53;17.46;56.19
80579;SHT31;69939;52.402;6.608;2023-06-14T00:13:20;17.38;56.46
80579;SHT31;69939;52.402;6.608;2023-06-14T00:15:46;17.26;56.62
80579;SHT31;69939;52.402;6.608;2023-06-14T00:18:13;17.26;56.97
80579;SHT31;69939;52.402;6.608;2023-06-14T00:20:41;17.14;57.45
80579;SHT31;69939;52.402;6.608;2023-06-14T00:23:11;17.14;57.17
80579;SHT31;69939;52.402;6.608;2023-06-14T00:25:38;17.05;57.52
80579;SHT31;69939;52.402;6.608;2023-06-14T00:28:04;17.12;57.01
80579;SHT31;69939;52.402;6.608;2023-06-14T00:30:31;17.04;57.45
80579;SHT31;69939;52.402;6.608;2023-06-14T00:32:58;17.02;57.63
80579;SHT31;69939;52.402;6.608;2023-06-14T00:35:24;17.02;57.52
80579;SHT31;69939;52.402;6.608;2023-06-14T00:37:52;16.95;57.82
80579;SHT31;69939;52.402;6.608;2023-06-14T00:40:20;16.91;58.03
80579;SHT31;69939;52.402;6.608;2023-06-14T00:42:47;16.89;58.13
80579;SHT31;69939;52.402;6.608;2023-06-14T00:45:14;16.85;58.48
80579;SHT31;69939;52.402;6.608;2023-06-14T00:47:41;16.74;58.61
80579;SHT31;69939;52.402;6.608;2023-06-14T00:50:09;16.74;58.36
80579;SHT31;69939;52.402;6.608;2023-06-14T00:52:36;16.67;58.64
80579;SHT31;69939;52.402;6.608;2023-06-14T00:55:08;16.65;58.70
80579;SHT31;69939;52.402;6.608;2023-06-14T00:57:35;16.65;59.07
80579;SHT31;69939;52.402;6.608;2023-06-14T01:00:03;16.64;58.99
80579;SHT31;69939;52.402;6.608;2023-06-14T01:02:34;16.53;59.91
80579;SHT31;69939;52.402;6.608;2023-06-14T01:05:02;16.43;59.69
80579;SHT31;69939;52.402;6.608;2023-06-14T01:07:36;16.40;59.80
80579;SHT31;69939;52.402;6.608;2023-06-14T01:10:24;16.27;60.35
80579;SHT31;69939;52.402;6.608;2023-06-14T01:12:58;16.26;60.34
80579;SHT31;69939;52.402;6.608;2023-06-14T01:15:26;16.20;60.61
80579;SHT31;69939;52.402;6.608;2023-06-14T01:17:54;16.06;61.30
80579;SHT31;69939;52.402;6.608;2023-06-14T01:20:28;15.94;62.09
80579;SHT31;69939;52.402;6.608;2023-06-14T01:22:57;15.89;61.65
80579;SHT31;69939;52.402;6.608;2023-06-14T01:25:24;15.88;61.66
80579;SHT31;69939;52.402;6.608;2023-06-14T01:27:53;15.86;62.05
80579;SHT31;69939;52.402;6.608;2023-06-14T01:30:23;15.88;61.59
80579;SHT31;69939;52.402;6.608;2023-06-14T01:32:50;15.84;61.85
80579;SHT31;69939;52.402;6.608;2023-06-14T01:35:18;15.78;62.15
80579;SHT31;69939;52.402;6.608;2023-06-14T01:37:47;15.82;62.18
80579;SHT31;69939;52.402;6.608;2023-06-14T01:40:15;15.82;62.32
80579;SHT31;69939;52.402;6.608;2023-06-14T01:42:43;15.78;62.50
80579;SHT31;69939;52.402;6.608;2023-06-14T01:45:12;15.79;62.23
80579;SHT31;69939;52.402;6.608;2023-06-14T01:47:39;15.85;61.89
80579;SHT31;69939;52.402;6.608;2023-06-14T01:50:07;15.88;61.94
80579;SHT31;69939;52.402;6.608;2023-06-14T01:52:33;15.86;61.80
80579;SHT31;69939;52.402;6.608;2023-06-14T01:55:00;15.84;62.26
80579;SHT31;69939;52.402;6.608;2023-06-14T01:57:29;15.82;62.37
80579;SHT31;69939;52.402;6.608;2023-06-14T01:59:56;15.84;61.88
80579;SHT31;69939;52.402;6.608;2023-06-14T02:02:22;15.79;62.12
80579;SHT31;69939;52.402;6.608;2023-06-14T02:04:49;15.85;61.94
80579;SHT31;69939;52.402;6.608;2023-06-14T02:07:15;15.78;62.30
80579;SHT31;69939;52.402;6.608;2023-06-14T02:09:42;15.72;62.62
80579;SHT31;69939;52.402;6.608;2023-06-14T02:12:09;15.65;62.88
80579;SHT31;69939;52.402;6.608;2023-06-14T02:14:37;15.59;63.06
80579;SHT31;69939;52.402;6.608;2023-06-14T02:17:04;15.59;63.00
80579;SHT31;69939;52.402;6.608;2023-06-14T02:19:31;15.61;62.85
80579;SHT31;69939;52.402;6.608;2023-06-14T02:22:01;15.50;63.10
80579;SHT31;69939;52.402;6.608;2023-06-14T02:24:27;15.51;63.02
80579;SHT31;69939;52.402;6.608;2023-06-14T02:26:54;15.47;63.80
80579;SHT31;69939;52.402;6.608;2023-06-14T02:29:20;15.46;63.43
80579;SHT31;69939;52.402;6.608;2023-06-14T02:31:48;15.46;63.42
80579;SHT31;69939;52.402;6.608;2023-06-14T02:34:15;15.37;64.22
80579;SHT31;69939;52.402;6.608;2023-06-14T02:36:45;15.37;63.66
80579;SHT31;69939;52.402;6.608;2023-06-14T02:39:13;15.29;64.18
80579;SHT31;69939;52.402;6.608;2023-06-14T02:41:40;15.34;63.76
80579;SHT31;69939;52.402;6.608;2023-06-14T02:44:06;15.33;64.07
80579;SHT31;69939;52.402;6.608;2023-06-14T02:46:33;15.17;64.51
80579;SHT31;69939;52.402;6.608;2023-06-14T02:49:02;15.22;64.50
80579;SHT31;69939;52.402;6.608;2023-06-14T02:51:29;15.13;65.02
80579;SHT31;69939;52.402;6.608;2023-06-14T02:53:57;15.10;64.90
80579;SHT31;69939;52.402;6.608;2023-06-14T02:56:23;15.03;65.63
80579;SHT31;69939;52.402;6.608;2023-06-14T02:58:51;15.02;65.24
80579;SHT31;69939;52.402;6.608;2023-06-14T03:01:18;15.00;65.34
80579;SHT31;69939;52.402;6.608;2023-06-14T03:03:45;15.02;65.43
80579;SHT31;69939;52.402;6.608;2023-06-14T03:06:13;15.03;65.16
80579;SHT31;69939;52.402;6.608;2023-06-14T03:08:41;14.95;65.39
80579;SHT31;69939;52.402;6.608;2023-06-14T03:11:09;14.88;66.02
80579;SHT31;69939;52.402;6.608;2023-06-14T03:13:37;14.89;66.12
80579;SHT31;69939;52.402;6.608;2023-06-14T03:16:04;14.96;65.57
80579;SHT31;69939;52.402;6.608;2023-06-14T03:18:30;14.86;65.85
80579;SHT31;69939;52.402;6.608;2023-06-14T03:21:01;14.86;66.00
80579;SHT31;69939;52.402;6.608;2023-06-14T03:23:30;14.78;66.86
80579;SHT31;69939;52.402;6.608;2023-06-14T03:25:57;14.72;66.90
80579;SHT31;69939;52.402;6.608;2023-06-14T03:28:24;14.72;66.64
80579;SHT31;69939;52.402;6.608;2023-06-14T03:30:51;14.79;66.68
80579;SHT31;69939;52.402;6.608;2023-06-14T03:33:17;14.73;66.83
80579;SHT31;69939;52.402;6.608;2023-06-14T03:35:46;14.82;66.19
80579;SHT31;69939;52.402;6.608;2023-06-14T03:38:13;14.85;66.73
80579;SHT31;69939;52.402;6.608;2023-06-14T03:40:41;14.79;67.12
80579;SHT31;69939;52.402;6.608;2023-06-14T03:43:08;14.85;66.70
80579;SHT31;69939;52.402;6.608;2023-06-14T03:45:34;14.83;67.19
80579;SHT31;69939;52.402;6.608;2023-06-14T03:48:01;14.89;66.64
80579;SHT31;69939;52.402;6.608;2023-06-14T03:50:28;15.11;66.85
80579;SHT31;69939;52.402;6.608;2023-06-14T03:52:54;15.55;64.67
80579;SHT31;69939;52.402;6.608;2023-06-14T03:55:22;15.79;64.42
80579;SHT31;69939;52.402;6.608;2023-06-14T03:57:52;15.98;63.42
80579;SHT31;69939;52.402;6.608;2023-06-14T04:00:18;16.27;62.58
80579;SHT31;69939;52.402;6.608;2023-06-14T04:02:45;16.54;62.16
80579;SHT31;69939;52.402;6.608;2023-06-14T04:05:11;16.73;61.47
80579;SHT31;69939;52.402;6.608;2023-06-14T04:07:38;16.84;61.05
80579;SHT31;69939;52.402;6.608;2023-06-14T04:10:10;17.01;60.96
80579;SHT31;69939;52.402;6.608;2023-06-14T04:12:40;16.98;60.81
80579;SHT31;69939;52.402;6.608;2023-06-14T04:15:09;16.78;61.19
80579;SHT31;69939;52.402;6.608;2023-06-14T04:17:37;16.42;62.69
80579;SHT31;69939;52.402;6.608;2023-06-14T04:20:04;16.32;62.41
80579;SHT31;69939;52.402;6.608;2023-06-14T04:22:34;16.22;62.86
80579;SHT31;69939;52.402;6.608;2023-06-14T04:25:01;16.10;63.29
80579;SHT31;69939;52.402;6.608;2023-06-14T04:27:28;16.15;63.29
80579;SHT31;69939;52.402;6.608;2023-06-14T04:29:59;16.15;63.54
80579;SHT31;69939;52.402;6.608;2023-06-14T04:32:29;16.13;63.40
80579;SHT31;69939;52.402;6.608;2023-06-14T04:34:58;16.12;63.40
80579;SHT31;69939;52.402;6.608;2023-06-14T04:37:27;16.19;63.52
80579;SHT31;69939;52.402;6.608;2023-06-14T04:39:55;16.26;63.43
80579;SHT31;69939;52.402;6.608;2023-06-14T04:42:22;16.29;63.31
80579;SHT31;69939;52.402;6.608;2023-06-14T04:44:50;16.33;63.18
80579;SHT31;69939;52.402;6.608;2023-06-14T04:47:20;16.33;63.24
80579;SHT31;69939;52.402;6.608;2023-06-14T04:49:50;16.40;63.15
80579;SHT31;69939;52.402;6.608;2023-06-14T04:52:19;16.52;62.72
80579;SHT31;69939;52.402;6.608;2023-06-14T04:54:46;16.52;63.18
80579;SHT31;69939;52.402;6.608;2023-06-14T04:57:13;16.57;62.74
80579;SHT31;69939;52.402;6.608;2023-06-14T04:59:42;16.59;62.42
80579;SHT31;69939;52.402;6.608;2023-06-14T05:02:09;16.65;62.12
80579;SHT31;69939;52.402;6.608;2023-06-14T05:04:37;16.65;62.34
80579;SHT31;69939;52.402;6.608;2023-06-14T05:07:06;16.70;62.75
80579;SHT31;69939;52.402;6.608;2023-06-14T05:09:33;16.82;62.25
80579;SHT31;69939;52.402;6.608;2023-06-14T05:12:01;16.89;61.95
80579;SHT31;69939;52.402;6.608;2023-06-14T05:14:27;16.96;62.04
80579;SHT31;69939;52.402;6.608;2023-06-14T05:16:54;17.05;61.77
80579;SHT31;69939;52.402;6.608;2023-06-14T05:19:20;17.07;61.39
80579;SHT31;69939;52.402;6.608;2023-06-14T05:21:47;17.08;61.22
80579;SHT31;69939;52.402;6.608;2023-06-14T05:24:15;17.12;60.98
80579;SHT31;69939;52.402;6.608;2023-06-14T05:26:43;17.19;60.78
80579;SHT31;69939;52.402;6.608;2023-06-14T05:29:10;17.20;60.48
80579;SHT31;69939;52.402;6.608;2023-06-14T05:31:37;17.38;60.72
80579;SHT31;69939;52.402;6.608;2023-06-14T05:34:03;17.47;59.68
80579;SHT31;69939;52.402;6.608;2023-06-14T05:36:30;17.63;59.62
80579;SHT31;69939;52.402;6.608;2023-06-14T05:38:57;17.66;59.55
80579;SHT31;69939;52.402;6.608;2023-06-14T05:41:26;17.98;59.05
80579;SHT31;69939;52.402;6.608;2023-06-14T05:43:54;18.77;57.19
80579;SHT31;69939;52.402;6.608;2023-06-14T05:46:22;19.77;54.63
80579;SHT31;69939;52.402;6.608;2023-06-14T05:48:50;19.96;53.06
80579;SHT31;69939;52.402;6.608;2023-06-14T05:51:17;21.06;51.47
80579;SHT31;69939;52.402;6.608;2023-06-14T05:53:45;21.00;51.32
80579;SHT31;69939;52.402;6.608;2023-06-14T05:56:13;21.51;50.17
80579;SHT31;69939;52.402;6.608;2023-06-14T05:58:41;22.25;49.16
80579;SHT31;69939;52.402;6.608;2023-06-14T06:01:07;22.35;48.01
80579;SHT31;69939;52.402;6.608;2023-06-14T06:03:34;22.81;47.30
80579;SHT31;69939;52.402;6.608;2023-06-14T06:06:01;23.09;46.64
80579;SHT31;69939;52.402;6.608;2023-06-14T06:08:28;21.86;48.06
80579;SHT31;69939;52.402;6.608;2023-06-14T06:10:55;21.61;48.94
80579;SHT31;69939;52.402;6.608;2023-06-14T06:13:22;22.83;47.34
80579;SHT31;69939;52.402;6.608;2023-06-14T06:15:50;22.98;46.66
80579;SHT31;69939;52.402;6.608;2023-06-14T06:18:16;23.41;45.20
80579;SHT31;69939;52.402;6.608;2023-06-14T06:20:43;23.09;45.46
80579;SHT31;69939;52.402;6.608;2023-06-14T06:23:11;23.07;46.02
80579;SHT31;69939;52.402;6.608;2023-06-14T06:25:37;23.36;45.91
80579;SHT31;69939;52.402;6.608;2023-06-14T06:28:04;23.87;44.10
80579;SHT31;69939;52.402;6.608;2023-06-14T06:30:30;23.96;44.13
80579;SHT31;69939;52.402;6.608;2023-06-14T06:32:58;23.12;45.78
80579;SHT31;69939;52.402;6.608;2023-06-14T06:35:24;22.91;45.99
80579;SHT31;69939;52.402;6.608;2023-06-14T06:37:51;23.25;45.76
80579;SHT31;69939;52.402;6.608;2023-06-14T06:40:18;23.93;44.22
80579;SHT31;69939;52.402;6.608;2023-06-14T06:42:44;23.71;44.33
80579;SHT31;69939;52.402;6.608;2023-06-14T06:45:11;23.05;45.11
80579;SHT31;69939;52.402;6.608;2023-06-14T06:47:39;24.08;43.71
80579;SHT31;69939;52.402;6.608;2023-06-14T06:50:08;24.83;42.70
80579;SHT31;69939;52.402;6.608;2023-06-14T06:52:34;25.21;41.84
80579;SHT31;69939;52.402;6.608;2023-06-14T06:55:01;24.18;43.46
80579;SHT31;69939;52.402;6.608;2023-06-14T06:57:28;24.58;42.74
80579;SHT31;69939;52.402;6.608;2023-06-14T06:59:55;23.60;44.22
80579;SHT31;69939;52.402;6.608;2023-06-14T07:02:22;23.98;43.73
80579;SHT31;69939;52.402;6.608;2023-06-14T07:04:49;23.80;44.17
80579;SHT31;69939;52.402;6.608;2023-06-14T07:07:19;24.58;42.65
80579;SHT31;69939;52.402;6.608;2023-06-14T07:09:45;24.76;42.60
80579;SHT31;69939;52.402;6.608;2023-06-14T07:12:12;24.90;42.30
80579;SHT31;69939;52.402;6.608;2023-06-14T07:14:41;24.84;42.91
80579;SHT31;69939;52.402;6.608;2023-06-14T07:17:08;24.62;43.35
80579;SHT31;69939;52.402;6.608;2023-06-14T07:19:35;23.80;43.50
80579;SHT31;69939;52.402;6.608;2023-06-14T07:22:01;24.75;42.19
80579;SHT31;69939;52.402;6.608;2023-06-14T07:24:29;25.75;41.47
80579;SHT31;69939;52.402;6.608;2023-06-14T07:26:56;25.14;41.84
80579;SHT31;69939;52.402;6.608;2023-06-14T07:29:22;24.36;42.88
80579;SHT31;69939;52.402;6.608;2023-06-14T07:31:49;24.52;43.23
80579;SHT31;69939;52.402;6.608;2023-06-14T07:34:15;25.00;41.90
80579;SHT31;69939;52.402;6.608;2023-06-14T07:36:42;24.76;42.80
80579;SHT31;69939;52.402;6.608;2023-06-14T07:39:10;25.51;40.26
80579;SHT31;69939;52.402;6.608;2023-06-14T07:41:38;27.16;38.29
80579;SHT31;69939;52.402;6.608;2023-06-14T07:44:05;27.22;38.39
80579;SHT31;69939;52.402;6.608;2023-06-14T07:46:31;26.78;38.43
80579;SHT31;69939;52.402;6.608;2023-06-14T07:49:00;27.53;37.86
80579;SHT31;69939;52.402;6.608;2023-06-14T07:51:26;26.77;38.42
80579;SHT31;69939;52.402;6.608;2023-06-14T07:53:53;26.54;38.33
80579;SHT31;69939;52.402;6.608;2023-06-14T07:56:20;26.65;39.07
80579;SHT31;69939;52.402;6.608;2023-06-14T07:58:48;27.27;37.52
80579;SHT31;69939;52.402;6.608;2023-06-14T08:01:14;26.67;37.91
80579;SHT31;69939;52.402;6.608;2023-06-14T08:03:42;27.15;37.17
80579;SHT31;69939;52.402;6.608;2023-06-14T08:06:08;26.47;37.39
80579;SHT31;69939;52.402;6.608;2023-06-14T08:08:35;26.75;37.04
80579;SHT31;69939;52.402;6.608;2023-06-14T08:11:02;26.39;37.53
80579;SHT31;69939;52.402;6.608;2023-06-14T08:13:28;26.96;36.37
80579;SHT31;69939;52.402;6.608;2023-06-14T08:15:58;25.99;37.22
80579;SHT31;69939;52.402;6.608;2023-06-14T08:18:26;26.77;36.26
80579;SHT31;69939;52.402;6.608;2023-06-14T08:20:53;27.26;36.93
80579;SHT31;69939;52.402;6.608;2023-06-14T08:23:19;26.33;38.07
80579;SHT31;69939;52.402;6.608;2023-06-14T08:25:47;26.44;36.92
80579;SHT31;69939;52.402;6.608;2023-06-14T08:28:13;25.54;37.56
80579;SHT31;69939;52.402;6.608;2023-06-14T08:30:41;27.58;35.43
80579;SHT31;69939;52.402;6.608;2023-06-14T08:33:09;27.25;34.74
80579;SHT31;69939;52.402;6.608;2023-06-14T08:35:36;27.33;35.40
80579;SHT31;69939;52.402;6.608;2023-06-14T08:38:04;27.95;35.86
80579;SHT31;69939;52.402;6.608;2023-06-14T08:40:31;27.19;34.29
80579;SHT31;69939;52.402;6.608;2023-06-14T08:43:03;27.10;34.85
80579;SHT31;69939;52.402;6.608;2023-06-14T08:45:29;26.88;34.80
80579;SHT31;69939;52.402;6.608;2023-06-14T08:47:56;27.71;35.45
80579;SHT31;69939;52.402;6.608;2023-06-14T08:50:26;27.22;33.95
80579;SHT31;69939;52.402;6.608;2023-06-14T08:52:56;27.12;36.15
80579;SHT31;69939;52.402;6.608;2023-06-14T08:55:26;27.56;34.81
80579;SHT31;69939;52.402;6.608;2023-06-14T08:57:55;27.49;34.54
80579;SHT31;69939;52.402;6.608;2023-06-14T09:00:23;26.65;35.10
80579;SHT31;69939;52.402;6.608;2023-06-14T09:02:50;27.65;34.52
80579;SHT31;69939;52.402;6.608;2023-06-14T09:05:21;27.27;35.07
80579;SHT31;69939;52.402;6.608;2023-06-14T09:07:51;25.86;37.62
80579;SHT31;69939;52.402;6.608;2023-06-14T09:10:18;26.40;35.76
80579;SHT31;69939;52.402;6.608;2023-06-14T09:12:45;27.57;34.73
80579;SHT31;69939;52.402;6.608;2023-06-14T09:15:12;26.62;35.40
80579;SHT31;69939;52.402;6.608;2023-06-14T09:17:40;27.05;35.28
80579;SHT31;69939;52.402;6.608;2023-06-14T09:20:08;26.50;36.33
80579;SHT31;69939;52.402;6.608;2023-06-14T09:22:36;26.31;36.21
80579;SHT31;69939;52.402;6.608;2023-06-14T09:25:05;26.70;35.77
80579;SHT31;69939;52.402;6.608;2023-06-14T09:27:33;26.77;36.45
80579;SHT31;69939;52.402;6.608;2023-06-14T09:30:01;26.68;36.82
80579;SHT31;69939;52.402;6.608;2023-06-14T09:32:27;26.62;35.84
80579;SHT31;69939;52.402;6.608;2023-06-14T09:34:54;26.62;36.54
80579;SHT31;69939;52.402;6.608;2023-06-14T09:37:28;26.67;36.19
80579;SHT31;69939;52.402;6.608;2023-06-14T09:39:57;26.92;35.59
80579;SHT31;69939;52.402;6.608;2023-06-14T09:42:26;27.15;34.93
80579;SHT31;69939;52.402;6.608;2023-06-14T09:44:55;27.12;35.59
80579;SHT31;69939;52.402;6.608;2023-06-14T09:47:22;26.98;35.55
80579;SHT31;69939;52.402;6.608;2023-06-14T09:49:51;26.79;35.72
80579;SHT31;69939;52.402;6.608;2023-06-14T09:52:20;26.70;35.81
80579;SHT31;69939;52.402;6.608;2023-06-14T09:54:48;26.43;36.31
80579;SHT31;69939;52.402;6.608;2023-06-14T09:57:16;26.12;36.72
80579;SHT31;69939;52.402;6.608;2023-06-14T09:59:45;25.72;36.40
80579;SHT31;69939;52.402;6.608;2023-06-14T10:02:22;25.86;35.33
80579;SHT31;69939;52.402;6.608;2023-06-14T10:04:56;26.55;35.32
80579;SHT31;69939;52.402;6.608;2023-06-14T10:07:26;26.41;35.91
80579;SHT31;69939;52.402;6.608;2023-06-14T10:09:55;26.89;35.23
80579;SHT31;69939;52.402;6.608;2023-06-14T10:12:22;26.84;36.01
80579;SHT31;69939;52.402;6.608;2023-06-14T10:14:51;25.78;36.62
80579;SHT31;69939;52.402;6.608;2023-06-14T10:17:24;25.88;35.12
80579;SHT31;69939;52.402;6.608;2023-06-14T10:19:55;25.97;35.70
80579;SHT31;69939;52.402;6.608;2023-06-14T10:22:30;26.58;35.06
80579;SHT31;69939;52.402;6.608;2023-06-14T10:24:59;26.85;35.54
80579;SHT31;69939;52.402;6.608;2023-06-14T10:27:25;26.57;36.81
80579;SHT31;69939;52.402;6.608;2023-06-14T10:30:10;27.26;34.57
80579;SHT31;69939;52.402;6.608;2023-06-14T10:33:03;26.78;35.17
80579;SHT31;69939;52.402;6.608;2023-06-14T10:35:30;27.40;35.27
80579;SHT31;69939;52.402;6.608;2023-06-14T10:38:06;26.72;36.23
80579;SHT31;69939;52.402;6.608;2023-06-14T10:40:33;26.88;35.10
80579;SHT31;69939;52.402;6.608;2023-06-14T10:43:00;26.37;35.88
80579;SHT31;69939;52.402;6.608;2023-06-14T10:45:28;26.26;36.40
80579;SHT31;69939;52.402;6.608;2023-06-14T10:47:57;26.65;36.07
80579;SHT31;69939;52.402;6.608;2023-06-14T10:50:27;27.46;35.13
80579;SHT31;69939;52.402;6.608;2023-06-14T10:52:54;26.33;36.05
80579;SHT31;69939;52.402;6.608;2023-06-14T10:55:22;27.02;35.54
80579;SHT31;69939;52.402;6.608;2023-06-14T10:57:51;25.68;36.82
80579;SHT31;69939;52.402;6.608;2023-06-14T11:00:21;26.81;35.47
80579;SHT31;69939;52.402;6.608;2023-06-14T11:06:13;26.94;35.84
80579;SHT31;69939;52.402;6.608;2023-06-14T11:11:31;26.91;35.73
80579;SHT31;69939;52.402;6.608;2023-06-14T11:14:00;26.94;35.78
80579;SHT31;69939;52.402;6.608;2023-06-14T11:16:29;27.57;35.64
80579;SHT31;69939;52.402;6.608;2023-06-14T11:19:00;27.73;34.85
80579;SHT31;69939;52.402;6.608;2023-06-14T11:21:28;27.03;35.06
80579;SHT31;69939;52.402;6.608;2023-06-14T11:23:56;27.19;35.90
80579;SHT31;69939;52.402;6.608;2023-06-14T11:26:27;26.95;34.69
80579;SHT31;69939;52.402;6.608;2023-06-14T11:28:57;26.79;34.88
80579;SHT31;69939;52.402;6.608;2023-06-14T11:31:28;27.42;34.03
80579;SHT31;69939;52.402;6.608;2023-06-14T11:33:56;27.73;33.98
80579;SHT31;69939;52.402;6.608;2023-06-14T11:36:28;27.83;35.25
80579;SHT31;69939;52.402;6.608;2023-06-14T11:38:59;27.91;34.22
80579;SHT31;69939;52.402;6.608;2023-06-14T11:41:32;28.08;34.19
80579;SHT31;69939;52.402;6.608;2023-06-14T11:44:00;27.68;35.61
80579;SHT31;69939;52.402;6.608;2023-06-14T11:46:27;27.10;34.08
80579;SHT31;69939;52.402;6.608;2023-06-14T11:48:54;27.95;33.87
80579;SHT31;69939;52.402;6.608;2023-06-14T11:51:21;27.47;34.94
80579;SHT31;69939;52.402;6.608;2023-06-14T11:53:49;26.96;35.78
80579;SHT31;69939;52.402;6.608;2023-06-14T11:56:16;28.28;34.24
80579;SHT31;69939;52.402;6.608;2023-06-14T11:58:42;27.42;34.85
80579;SHT31;69939;52.402;6.608;2023-06-14T12:01:09;27.91;34.10
80579;SHT31;69939;52.402;6.608;2023-06-14T12:03:35;27.83;34.24
80579;SHT31;69939;52.402;6.608;2023-06-14T12:06:05;27.57;34.88
80579;SHT31;69939;52.402;6.608;2023-06-14T12:08:34;28.35;34.31
80579;SHT31;69939;52.402;6.608;2023-06-14T12:11:06;27.56;35.01
80579;SHT31;69939;52.402;6.608;2023-06-14T12:13:37;28.06;33.38
80579;SHT31;69939;52.402;6.608;2023-06-14T12:16:04;28.53;33.39
80579;SHT31;69939;52.402;6.608;2023-06-14T12:18:35;29.21;32.17
80579;SHT31;69939;52.402;6.608;2023-06-14T12:21:03;30.06;31.78
80579;SHT31;69939;52.402;6.608;2023-06-14T12:23:43;28.90;31.52
80579;SHT31;69939;52.402;6.608;2023-06-14T12:26:13;28.70;32.75
80579;SHT31;69939;52.402;6.608;2023-06-14T12:28:41;28.57;32.53
80579;SHT31;69939;52.402;6.608;2023-06-14T12:31:08;27.94;33.24
80579;SHT31;69939;52.402;6.608;2023-06-14T12:33:34;28.43;34.24
80579;SHT31;69939;52.402;6.608;2023-06-14T12:36:03;29.07;32.42
80579;SHT31;69939;52.402;6.608;2023-06-14T12:38:30;29.00;33.97
80579;SHT31;69939;52.402;6.608;2023-06-14T12:40:56;28.96;32.68
80579;SHT31;69939;52.402;6.608;2023-06-14T12:43:25;29.03;34.25
80579;SHT31;69939;52.402;6.608;2023-06-14T12:45:51;29.12;32.61
80579;SHT31;69939;52.402;6.608;2023-06-14T12:48:18;29.66;31.80
80579;SHT31;69939;52.402;6.608;2023-06-14T12:50:45;29.74;31.55
80579;SHT31;69939;52.402;6.608;2023-06-14T12:53:12;28.97;32.15
80579;SHT31;69939;52.402;6.608;2023-06-14T12:55:38;29.55;32.12
80579;SHT31;69939;52.402;6.608;2023-06-14T12:58:05;29.52;31.43
80579;SHT31;69939;52.402;6.608;2023-06-14T13:00:33;29.63;30.72
80579;SHT31;69939;52.402;6.608;2023-06-14T13:03:00;29.63;30.47
80579;SHT31;69939;52.402;6.608;2023-06-14T13:05:26;29.70;31.41
80579;SHT31;69939;52.402;6.608;2023-06-14T13:07:53;30.21;31.82
80579;SHT31;69939;52.402;6.608;2023-06-14T13:10:20;28.02;33.11
80579;SHT31;69939;52.402;6.608;2023-06-14T13:12:47;29.70;31.85
80579;SHT31;69939;52.402;6.608;2023-06-14T13:15:13;29.70;32.04
80579;SHT31;69939;52.402;6.608;2023-06-14T13:17:41;29.97;31.31
80579;SHT31;69939;52.402;6.608;2023-06-14T13:20:09;30.74;31.23
80579;SHT31;69939;52.402;6.608;2023-06-14T13:22:36;31.37;30.32
80579;SHT31;69939;52.402;6.608;2023-06-14T13:25:05;29.28;32.03
80579;SHT31;69939;52.402;6.608;2023-06-14T13:27:32;29.07;31.84
80579;SHT31;69939;52.402;6.608;2023-06-14T13:29:59;30.00;30.66
80579;SHT31;69939;52.402;6.608;2023-06-14T13:32:25;29.87;30.38
80579;SHT31;69939;52.402;6.608;2023-06-14T13:34:53;30.00;31.57
80579;SHT31;69939;52.402;6.608;2023-06-14T13:37:21;30.17;31.27
80579;SHT31;69939;52.402;6.608;2023-06-14T13:39:47;31.45;29.56
80579;SHT31;69939;52.402;6.608;2023-06-14T13:42:14;31.44;29.05
80579;SHT31;69939;52.402;6.608;2023-06-14T13:44:41;30.28;30.25
80579;SHT31;69939;52.402;6.608;2023-06-14T13:47:07;30.57;30.17
80579;SHT31;69939;52.402;6.608;2023-06-14T13:49:34;32.02;29.38
80579;SHT31;69939;52.402;6.608;2023-06-14T13:52:03;30.62;29.23
80579;SHT31;69939;52.402;6.608;2023-06-14T13:54:29;31.99;27.91
80579;SHT31;69939;52.402;6.608;2023-06-14T13:56:56;32.13;28.67
80579;SHT31;69939;52.402;6.608;2023-06-14T13:59:23;30.28;30.84
80579;SHT31;69939;52.402;6.608;2023-06-14T14:01:49;30.45;30.19
80579;SHT31;69939;52.402;6.608;2023-06-14T14:04:16;30.11;29.51
80579;SHT31;69939;52.402;6.608;2023-06-14T14:06:43;31.70;29.62
80579;SHT31;69939;52.402;6.608;2023-06-14T14:09:12;31.07;29.09
80579;SHT31;69939;52.402;6.608;2023-06-14T14:11:38;31.55;28.43
80579;SHT31;69939;52.402;6.608;2023-06-14T14:14:06;31.13;29.27
80579;SHT31;69939;52.402;6.608;2023-06-14T14:16:33;30.75;29.13
80579;SHT31;69939;52.402;6.608;2023-06-14T14:19:00;30.11;29.49
80579;SHT31;69939;52.402;6.608;2023-06-14T14:21:27;29.99;29.56
80579;SHT31;69939;52.402;6.608;2023-06-14T14:23:54;30.75;28.76
80579;SHT31;69939;52.402;6.608;2023-06-14T14:26:21;30.55;28.88
80579;SHT31;69939;52.402;6.608;2023-06-14T14:28:50;30.86;28.88
80579;SHT31;69939;52.402;6.608;2023-06-14T14:31:17;30.97;28.62
80579;SHT31;69939;52.402;6.608;2023-06-14T14:33:44;31.10;29.41
80579;SHT31;69939;52.402;6.608;2023-06-14T14:36:11;31.64;28.34
80579;SHT31;69939;52.402;6.608;2023-06-14T14:38:38;31.99;27.81
80579;SHT31;69939;52.402;6.608;2023-06-14T14:41:05;31.10;29.53
80579;SHT31;69939;52.402;6.608;2023-06-14T14:43:35;28.97;31.44
80579;SHT31;69939;52.402;6.608;2023-06-14T14:46:02;29.12;31.14
80579;SHT31;69939;52.402;6.608;2023-06-14T14:48:28;29.92;30.45
80579;SHT31;69939;52.402;6.608;2023-06-14T14:50:56;30.55;30.30
80579;SHT31;69939;52.402;6.608;2023-06-14T14:53:22;30.28;30.81
80579;SHT31;69939;52.402;6.608;2023-06-14T14:55:49;30.11;30.29
80579;SHT31;69939;52.402;6.608;2023-06-14T14:58:16;31.31;30.50
80579;SHT31;69939;52.402;6.608;2023-06-14T15:00:44;31.07;29.79
80579;SHT31;69939;52.402;6.608;2023-06-14T15:03:11;31.33;29.04
80579;SHT31;69939;52.402;6.608;2023-06-14T15:05:38;31.71;28.76
80579;SHT31;69939;52.402;6.608;2023-06-14T15:08:04;31.75;30.64
80579;SHT31;69939;52.402;6.608;2023-06-14T15:10:35;30.30;30.94
80579;SHT31;69939;52.402;6.608;2023-06-14T15:13:02;31.38;30.52
80579;SHT31;69939;52.402;6.608;2023-06-14T15:15:28;31.19;29.64
80579;SHT31;69939;52.402;6.608;2023-06-14T15:17:56;31.02;29.96
80579;SHT31;69939;52.402;6.608;2023-06-14T15:20:23;30.71;30.66
80579;SHT31;69939;52.402;6.608;2023-06-14T15:22:49;30.92;30.58
80579;SHT31;69939;52.402;6.608;2023-06-14T15:25:18;30.18;30.90
80579;SHT31;69939;52.402;6.608;2023-06-14T15:27:46;30.02;32.24
80579;SHT31;69939;52.402;6.608;2023-06-14T15:30:13;30.72;31.29
80579;SHT31;69939;52.402;6.608;2023-06-14T15:32:39;29.36;32.27
80579;SHT31;69939;52.402;6.608;2023-06-14T15:35:08;29.54;33.52
80579;SHT31;69939;52.402;6.608;2023-06-14T15:37:34;29.06;33.18
80579;SHT31;69939;52.402;6.608;2023-06-14T15:40:01;28.52;34.05